sensor_id;sensor_type;location;lat;lon;timestamp;temperature;humidity
58519;DHT22;44310;48.106;12.008;2023-06-14T00:01:43;20.30;58.60
58519;DHT22;44310;48.106;12.008;2023-06-14T00:04:13;20.40;58.60
58519;DHT22;44310;48.106;12.008;2023-06-14T00:06:40;20.20;58.50
58519;DHT22;44310;48.106;12.008;2023-06-14T00:09:08;20.40;58.60
58519;DHT22;44310;48.106;12.008;2023-06-14T00:11:35;20.30;58.50
58519;DHT22;44310;48.106;12.008;2023-06-14T00:14:03;20.20;58.50
58519;DHT22;44310;48.106;12.008;2023-06-14T00:16:30;20.30;58.50
58519;DHT22;44310;48.106;12.008;2023-06-14T00:19:00;20.20;58.40
58519;DHT22;44310;48.106;12.008;2023-06-14T00:21:27;20.30;58.20
58519;DHT22;44310;48.106;12.008;2023-06-14T00:23:57;20.30;58.20
58519;DHT22;44310;48.106;12.008;2023-06-14T00:26:25;20.20;58.20
58519;DHT22;44310;48.106;12.008;2023-06-14T00:28:54;20.00;57.90
58519;DHT22;44310;48.106;12.008;2023-06-14T00:31:21;20.30;58.00
58519;DHT22;44310;48.106;12.008;2023-06-14T00:33:48;20.20;58.00
58519;DHT22;44310;48.106;12.008;2023-06-14T00:36:15;20.30;58.10
58519;DHT22;44310;48.106;12.008;2023-06-14T00:38:42;20.30;58.00
58519;DHT22;44310;48.106;12.008;2023-06-14T00:41:09;20.20;57.80
58519;DHT22;44310;48.106;12.008;2023-06-14T00:43:37;20.10;57.60
58519;DHT22;44310;48.106;12.008;2023-06-14T00:46:04;20.20;57.80
58519;DHT22;44310;48.106;12.008;2023-06-14T00:48:31;20.20;57.80
58519;DHT22;44310;48.106;12.008;2023-06-14T00:51:00;20.00;57.80
58519;DHT22;44310;48.106;12.008;2023-06-14T00:53:31;20.20;58.20
58519;DHT22;44310;48.106;12.008;2023-06-14T00:56:00;20.20;58.00
58519;DHT22;44310;48.106;12.008;2023-06-14T00:58:28;20.20;58.80
58519;DHT22;44310;48.106;12.008;2023-06-14T01:00:56;20.10;58.20
58519;DHT22;44310;48.106;12.008;2023-06-14T01:03:23;20.10;58.10
58519;DHT22;44310;48.106;12.008;2023-06-14T01:06:00;20.10;58.10
58519;DHT22;44310;48.106;12.008;2023-06-14T01:08:40;20.10;58.10
58519;DHT22;44310;48.106;12.008;2023-06-14T01:11:18;20.10;58.50
58519;DHT22;44310;48.106;12.008;2023-06-14T01:13:50;20.20;58.50
58519;DHT22;44310;48.106;12.008;2023-06-14T01:16:19;20.20;58.40
58519;DHT22;44310;48.106;12.008;2023-06-14T01:18:47;20.20;58.50
58519;DHT22;44310;48.106;12.008;2023-06-14T01:21:25;20.20;58.80
58519;DHT22;44310;48.106;12.008;2023-06-14T01:23:52;20.20;58.90
58519;DHT22;44310;48.106;12.008;2023-06-14T01:26:21;20.40;59.50
58519;DHT22;44310;48.106;12.008;2023-06-14T01:28:49;20.20;59.00
58519;DHT22;44310;48.106;12.008;2023-06-14T01:31:20;20.20;58.90
58519;DHT22;44310;48.106;12.008;2023-06-14T01:33:51;20.40;59.30
58519;DHT22;44310;48.106;12.008;2023-06-14T01:36:19;20.20;58.90
58519;DHT22;44310;48.106;12.008;2023-06-14T01:38:48;20.20;58.70
58519;DHT22;44310;48.106;12.008;2023-06-14T01:41:18;20.20;58.80
58519;DHT22;44310;48.106;12.008;2023-06-14T01:43:47;20.10;58.60
58519;DHT22;44310;48.106;12.008;2023-06-14T01:46:16;20.10;58.40
58519;DHT22;44310;48.106;12.008;2023-06-14T01:48:43;20.10;58.40
58519;DHT22;44310;48.106;12.008;2023-06-14T01:51:10;20.10;58.30
58519;DHT22;44310;48.106;12.008;2023-06-14T01:53:37;20.10;58.20
58519;DHT22;44310;48.106;12.008;2023-06-14T01:56:05;20.10;58.30
58519;DHT22;44310;48.106;12.008;2023-06-14T01:58:33;20.10;58.20
58519;DHT22;44310;48.106;12.008;2023-06-14T02:01:00;20.10;58.20
58519;DHT22;44310;48.106;12.008;2023-06-14T02:03:28;20.10;58.00
58519;DHT22;44310;48.106;12.008;2023-06-14T02:05:55;20.00;57.80
58519;DHT22;44310;48.106;12.008;2023-06-14T02:08:23;20.10;57.80
58519;DHT22;44310;48.106;12.008;2023-06-14T02:10:51;19.90;57.50
58519;DHT22;44310;48.106;12.008;2023-06-14T02:13:18;20.00;57.50
58519;DHT22;44310;48.106;12.008;2023-06-14T02:15:45;20.00;57.60
58519;DHT22;44310;48.106;12.008;2023-06-14T02:18:13;20.00;57.40
58519;DHT22;44310;48.106;12.008;2023-06-14T02:20:40;20.10;58.60
58519;DHT22;44310;48.106;12.008;2023-06-14T02:23:07;20.10;58.50
58519;DHT22;44310;48.106;12.008;2023-06-14T02:25:35;20.10;58.40
58519;DHT22;44310;48.106;12.008;2023-06-14T02:28:02;20.10;58.60
58519;DHT22;44310;48.106;12.008;2023-06-14T02:30:29;20.20;58.60
58519;DHT22;44310;48.106;12.008;2023-06-14T02:32:57;20.20;58.40
58519;DHT22;44310;48.106;12.008;2023-06-14T02:35:26;20.20;58.00
58519;DHT22;44310;48.106;12.008;2023-06-14T02:37:54;20.20;57.90
58519;DHT22;44310;48.106;12.008;2023-06-14T02:40:21;20.10;57.50
58519;DHT22;44310;48.106;12.008;2023-06-14T02:42:48;20.10;57.70
58519;DHT22;44310;48.106;12.008;2023-06-14T02:45:15;20.10;57.80
58519;DHT22;44310;48.106;12.008;2023-06-14T02:47:42;20.10;57.90
58519;DHT22;44310;48.106;12.008;2023-06-14T02:50:10;20.50;58.10
58519;DHT22;44310;48.106;12.008;2023-06-14T02:52:37;20.50;58.10
58519;DHT22;44310;48.106;12.008;2023-06-14T02:55:05;20.20;57.80
58519;DHT22;44310;48.106;12.008;2023-06-14T02:57:33;20.10;57.70
58519;DHT22;44310;48.106;12.008;2023-06-14T03:00:00;20.10;57.80
58519;DHT22;44310;48.106;12.008;2023-06-14T03:02:27;20.20;58.00
58519;DHT22;44310;48.106;12.008;2023-06-14T03:04:54;20.20;58.10
58519;DHT22;44310;48.106;12.008;2023-06-14T03:07:22;20.20;58.00
58519;DHT22;44310;48.106;12.008;2023-06-14T03:09:50;20.10;57.80
58519;DHT22;44310;48.106;12.008;2023-06-14T03:12:17;20.10;57.90
58519;DHT22;44310;48.106;12.008;2023-06-14T03:14:44;20.20;57.90
58519;DHT22;44310;48.106;12.008;2023-06-14T03:17:13;20.20;58.10
58519;DHT22;44310;48.106;12.008;2023-06-14T03:19:41;20.10;58.00
58519;DHT22;44310;48.106;12.008;2023-06-14T03:22:08;20.20;57.90
58519;DHT22;44310;48.106;12.008;2023-06-14T03:24:35;20.10;57.80
58519;DHT22;44310;48.106;12.008;2023-06-14T03:27:04;20.10;57.80
58519;DHT22;44310;48.106;12.008;2023-06-14T03:29:31;20.10;57.70
58519;DHT22;44310;48.106;12.008;2023-06-14T03:32:00;20.10;57.50
58519;DHT22;44310;48.106;12.008;2023-06-14T03:34:27;20.00;57.20
58519;DHT22;44310;48.106;12.008;2023-06-14T03:36:54;19.30;57.00
58519;DHT22;44310;48.106;12.008;2023-06-14T03:39:22;20.00;57.40
58519;DHT22;44310;48.106;12.008;2023-06-14T03:41:49;20.00;58.00
58519;DHT22;44310;48.106;12.008;2023-06-14T03:44:17;20.00;57.50
58519;DHT22;44310;48.106;12.008;2023-06-14T03:46:45;20.00;57.50
58519;DHT22;44310;48.106;12.008;2023-06-14T03:49:13;20.00;57.30
58519;DHT22;44310;48.106;12.008;2023-06-14T03:51:40;20.00;57.00
58519;DHT22;44310;48.106;12.008;2023-06-14T03:54:08;20.00;57.10
58519;DHT22;44310;48.106;12.008;2023-06-14T03:56:38;19.90;57.20
58519;DHT22;44310;48.106;12.008;2023-06-14T03:59:05;20.00;58.10
58519;DHT22;44310;48.106;12.008;2023-06-14T04:01:32;19.90;58.20
58519;DHT22;44310;48.106;12.008;2023-06-14T04:04:00;20.10;58.30
58519;DHT22;44310;48.106;12.008;2023-06-14T04:06:28;20.10;58.00
58519;DHT22;44310;48.106;12.008;2023-06-14T04:09:00;20.10;57.80
58519;DHT22;44310;48.106;12.008;2023-06-14T04:11:31;20.20;57.70
58519;DHT22;44310;48.106;12.008;2023-06-14T04:13:59;20.10;57.60
58519;DHT22;44310;48.106;12.008;2023-06-14T04:16:26;20.50;57.90
58519;DHT22;44310;48.106;12.008;2023-06-14T04:18:55;20.10;57.70
58519;DHT22;44310;48.106;12.008;2023-06-14T04:21:22;20.10;57.60
58519;DHT22;44310;48.106;12.008;2023-06-14T04:23:50;20.20;57.70
58519;DHT22;44310;48.106;12.008;2023-06-14T04:26:20;20.10;57.60
58519;DHT22;44310;48.106;12.008;2023-06-14T04:28:49;20.10;57.70
58519;DHT22;44310;48.106;12.008;2023-06-14T04:31:17;19.90;57.70
58519;DHT22;44310;48.106;12.008;2023-06-14T04:33:45;20.10;58.00
58519;DHT22;44310;48.106;12.008;2023-06-14T04:36:14;20.10;58.20
58519;DHT22;44310;48.106;12.008;2023-06-14T04:38:45;19.80;58.20
58519;DHT22;44310;48.106;12.008;2023-06-14T04:41:13;20.10;58.60
58519;DHT22;44310;48.106;12.008;2023-06-14T04:43:40;20.20;58.60
58519;DHT22;44310;48.106;12.008;2023-06-14T04:46:07;20.10;58.50
58519;DHT22;44310;48.106;12.008;2023-06-14T04:48:40;20.50;58.90
58519;DHT22;44310;48.106;12.008;2023-06-14T04:51:09;20.10;58.80
58519;DHT22;44310;48.106;12.008;2023-06-14T04:53:36;20.20;59.00
58519;DHT22;44310;48.106;12.008;2023-06-14T04:56:04;20.10;58.90
58519;DHT22;44310;48.106;12.008;2023-06-14T04:58:31;20.10;59.10
58519;DHT22;44310;48.106;12.008;2023-06-14T05:00:59;19.60;59.00
58519;DHT22;44310;48.106;12.008;2023-06-14T05:03:26;20.20;59.50
58519;DHT22;44310;48.106;12.008;2023-06-14T05:05:54;20.10;59.50
58519;DHT22;44310;48.106;12.008;2023-06-14T05:08:22;21.30;60.20
58519;DHT22;44310;48.106;12.008;2023-06-14T05:10:50;20.10;59.60
58519;DHT22;44310;48.106;12.008;2023-06-14T05:13:18;20.20;59.70
58519;DHT22;44310;48.106;12.008;2023-06-14T05:15:45;20.20;59.50
58519;DHT22;44310;48.106;12.008;2023-06-14T05:18:13;20.10;59.50
58519;DHT22;44310;48.106;12.008;2023-06-14T05:20:41;20.20;59.50
58519;DHT22;44310;48.106;12.008;2023-06-14T05:23:11;20.20;59.40
58519;DHT22;44310;48.106;12.008;2023-06-14T05:25:43;20.10;59.30
58519;DHT22;44310;48.106;12.008;2023-06-14T05:28:11;20.10;59.20
58519;DHT22;44310;48.106;12.008;2023-06-14T05:30:38;19.80;59.00
58519;DHT22;44310;48.106;12.008;2023-06-14T05:33:06;20.20;59.30
58519;DHT22;44310;48.106;12.008;2023-06-14T05:35:34;20.20;59.50
58519;DHT22;44310;48.106;12.008;2023-06-14T05:38:01;20.20;59.60
58519;DHT22;44310;48.106;12.008;2023-06-14T05:40:28;20.10;59.50
58519;DHT22;44310;48.106;12.008;2023-06-14T05:42:56;20.10;59.60
58519;DHT22;44310;48.106;12.008;2023-06-14T05:45:23;20.10;59.70
58519;DHT22;44310;48.106;12.008;2023-06-14T05:47:50;20.10;59.80
58519;DHT22;44310;48.106;12.008;2023-06-14T05:50:17;20.10;59.70
58519;DHT22;44310;48.106;12.008;2023-06-14T05:52:45;20.10;59.70
58519;DHT22;44310;48.106;12.008;2023-06-14T05:55:12;20.10;59.70
58519;DHT22;44310;48.106;12.008;2023-06-14T05:57:40;20.20;59.60
58519;DHT22;44310;48.106;12.008;2023-06-14T06:00:09;20.20;59.60
58519;DHT22;44310;48.106;12.008;2023-06-14T06:02:42;20.20;59.70
58519;DHT22;44310;48.106;12.008;2023-06-14T06:05:13;20.20;59.80
58519;DHT22;44310;48.106;12.008;2023-06-14T06:07:43;20.20;60.00
58519;DHT22;44310;48.106;12.008;2023-06-14T06:10:12;20.20;60.10
58519;DHT22;44310;48.106;12.008;2023-06-14T06:12:41;20.10;60.10
58519;DHT22;44310;48.106;12.008;2023-06-14T06:15:09;20.20;60.20
58519;DHT22;44310;48.106;12.008;2023-06-14T06:17:39;20.20;60.40
58519;DHT22;44310;48.106;12.008;2023-06-14T06:20:22;20.20;60.30
58519;DHT22;44310;48.106;12.008;2023-06-14T06:22:55;20.20;60.20
58519;DHT22;44310;48.106;12.008;2023-06-14T06:25:22;20.20;60.40
58519;DHT22;44310;48.106;12.008;2023-06-14T06:27:53;20.30;60.50
58519;DHT22;44310;48.106;12.008;2023-06-14T06:30:21;20.20;60.30
58519;DHT22;44310;48.106;12.008;2023-06-14T06:32:48;20.10;60.20
58519;DHT22;44310;48.106;12.008;2023-06-14T06:35:15;20.20;60.20
58519;DHT22;44310;48.106;12.008;2023-06-14T06:37:43;20.30;60.30
58519;DHT22;44310;48.106;12.008;2023-06-14T06:40:11;20.30;60.30
58519;DHT22;44310;48.106;12.008;2023-06-14T06:42:38;20.30;60.30
58519;DHT22;44310;48.106;12.008;2023-06-14T06:45:05;20.10;61.10
58519;DHT22;44310;48.106;12.008;2023-06-14T06:47:33;20.30;60.80
58519;DHT22;44310;48.106;12.008;2023-06-14T06:50:00;20.30;61.00
58519;DHT22;44310;48.106;12.008;2023-06-14T06:52:27;20.20;61.10
58519;DHT22;44310;48.106;12.008;2023-06-14T06:54:56;20.30;61.30
58519;DHT22;44310;48.106;12.008;2023-06-14T06:57:24;20.30;61.60
58519;DHT22;44310;48.106;12.008;2023-06-14T06:59:51;20.30;61.60
58519;DHT22;44310;48.106;12.008;2023-06-14T07:02:18;20.30;61.80
58519;DHT22;44310;48.106;12.008;2023-06-14T07:04:45;20.30;61.80
58519;DHT22;44310;48.106;12.008;2023-06-14T07:07:13;20.30;61.80
58519;DHT22;44310;48.106;12.008;2023-06-14T07:09:40;20.40;61.90
58519;DHT22;44310;48.106;12.008;2023-06-14T07:12:09;20.30;62.10
58519;DHT22;44310;48.106;12.008;2023-06-14T07:14:37;20.30;62.10
58519;DHT22;44310;48.106;12.008;2023-06-14T07:17:04;20.30;62.10
58519;DHT22;44310;48.106;12.008;2023-06-14T07:19:31;20.40;62.30
58519;DHT22;44310;48.106;12.008;2023-06-14T07:22:00;20.30;62.20
58519;DHT22;44310;48.106;12.008;2023-06-14T07:24:27;20.40;62.30
58519;DHT22;44310;48.106;12.008;2023-06-14T07:26:55;20.30;62.40
58519;DHT22;44310;48.106;12.008;2023-06-14T07:29:23;20.10;62.30
58519;DHT22;44310;48.106;12.008;2023-06-14T07:31:50;20.30;63.00
58519;DHT22;44310;48.106;12.008;2023-06-14T07:34:17;20.20;61.60
58519;DHT22;44310;48.106;12.008;2023-06-14T07:36:44;20.20;62.30
58519;DHT22;44310;48.106;12.008;2023-06-14T07:39:12;20.00;61.80
58519;DHT22;44310;48.106;12.008;2023-06-14T07:41:39;20.00;61.80
58519;DHT22;44310;48.106;12.008;2023-06-14T07:44:06;19.90;62.80
58519;DHT22;44310;48.106;12.008;2023-06-14T07:46:33;19.90;63.00
58519;DHT22;44310;48.106;12.008;2023-06-14T07:49:01;19.90;62.80
58519;DHT22;44310;48.106;12.008;2023-06-14T07:51:29;20.00;63.00
58519;DHT22;44310;48.106;12.008;2023-06-14T07:53:56;20.10;63.50
58519;DHT22;44310;48.106;12.008;2023-06-14T07:56:23;20.10;63.70
58519;DHT22;44310;48.106;12.008;2023-06-14T07:58:50;20.20;64.10
58519;DHT22;44310;48.106;12.008;2023-06-14T08:01:17;20.20;64.20
58519;DHT22;44310;48.106;12.008;2023-06-14T08:03:46;20.30;64.40
58519;DHT22;44310;48.106;12.008;2023-06-14T08:06:15;20.30;64.40
58519;DHT22;44310;48.106;12.008;2023-06-14T08:08:42;20.30;64.50
58519;DHT22;44310;48.106;12.008;2023-06-14T08:11:09;20.30;64.40
58519;DHT22;44310;48.106;12.008;2023-06-14T08:13:36;20.40;64.40
58519;DHT22;44310;48.106;12.008;2023-06-14T08:16:04;20.30;64.50
58519;DHT22;44310;48.106;12.008;2023-06-14T08:18:32;20.40;64.80
58519;DHT22;44310;48.106;12.008;2023-06-14T08:20:59;20.40;65.00
58519;DHT22;44310;48.106;12.008;2023-06-14T08:23:26;20.40;65.00
58519;DHT22;44310;48.106;12.008;2023-06-14T08:25:54;20.40;65.10
58519;DHT22;44310;48.106;12.008;2023-06-14T08:28:21;20.40;65.10
58519;DHT22;44310;48.106;12.008;2023-06-14T08:30:48;20.40;65.10
58519;DHT22;44310;48.106;12.008;2023-06-14T08:33:15;20.40;64.90
58519;DHT22;44310;48.106;12.008;2023-06-14T08:35:43;20.30;62.60
58519;DHT22;44310;48.106;12.008;2023-06-14T08:38:11;20.20;62.10
58519;DHT22;44310;48.106;12.008;2023-06-14T08:40:40;20.20;62.90
58519;DHT22;44310;48.106;12.008;2023-06-14T08:43:08;20.10;60.50
58519;DHT22;44310;48.106;12.008;2023-06-14T08:45:36;20.60;61.10
58519;DHT22;44310;48.106;12.008;2023-06-14T08:48:03;19.90;60.70
58519;DHT22;44310;48.106;12.008;2023-06-14T08:50:32;19.90;60.90
58519;DHT22;44310;48.106;12.008;2023-06-14T08:53:02;19.90;61.00
58519;DHT22;44310;48.106;12.008;2023-06-14T08:55:32;19.90;61.10
58519;DHT22;44310;48.106;12.008;2023-06-14T08:58:09;19.80;61.30
58519;DHT22;44310;48.106;12.008;2023-06-14T09:00:42;19.90;62.20
58519;DHT22;44310;48.106;12.008;2023-06-14T09:03:10;19.90;61.60
58519;DHT22;44310;48.106;12.008;2023-06-14T09:05:41;19.90;61.60
58519;DHT22;44310;48.106;12.008;2023-06-14T09:08:08;19.90;61.90
58519;DHT22;44310;48.106;12.008;2023-06-14T09:10:35;19.90;61.80
58519;DHT22;44310;48.106;12.008;2023-06-14T09:13:05;19.90;61.60
58519;DHT22;44310;48.106;12.008;2023-06-14T09:15:34;19.90;61.60
58519;DHT22;44310;48.106;12.008;2023-06-14T09:18:02;19.90;61.70
58519;DHT22;44310;48.106;12.008;2023-06-14T09:20:30;19.90;61.40
58519;DHT22;44310;48.106;12.008;2023-06-14T09:22:58;19.80;61.40
58519;DHT22;44310;48.106;12.008;2023-06-14T09:25:25;19.80;61.20
58519;DHT22;44310;48.106;12.008;2023-06-14T09:28:09;19.90;61.30
58519;DHT22;44310;48.106;12.008;2023-06-14T09:30:37;19.80;60.80
58519;DHT22;44310;48.106;12.008;2023-06-14T09:33:05;19.90;61.10
58519;DHT22;44310;48.106;12.008;2023-06-14T09:35:33;19.80;61.80
58519;DHT22;44310;48.106;12.008;2023-06-14T09:38:00;19.80;61.20
58519;DHT22;44310;48.106;12.008;2023-06-14T09:40:27;19.80;61.00
58519;DHT22;44310;48.106;12.008;2023-06-14T09:42:55;19.80;61.00
58519;DHT22;44310;48.106;12.008;2023-06-14T09:45:25;19.80;60.80
58519;DHT22;44310;48.106;12.008;2023-06-14T09:47:56;19.70;60.80
58519;DHT22;44310;48.106;12.008;2023-06-14T09:50:34;19.80;60.80
58519;DHT22;44310;48.106;12.008;2023-06-14T09:53:10;19.90;60.80
58519;DHT22;44310;48.106;12.008;2023-06-14T09:55:38;20.20;60.80
58519;DHT22;44310;48.106;12.008;2023-06-14T09:58:08;19.80;60.60
58519;DHT22;44310;48.106;12.008;2023-06-14T10:00:37;19.70;60.30
58519;DHT22;44310;48.106;12.008;2023-06-14T10:03:13;19.80;60.40
58519;DHT22;44310;48.106;12.008;2023-06-14T10:05:45;19.80;60.30
58519;DHT22;44310;48.106;12.008;2023-06-14T10:08:18;19.80;59.80
58519;DHT22;44310;48.106;12.008;2023-06-14T10:10:47;19.80;60.30
58519;DHT22;44310;48.106;12.008;2023-06-14T10:13:15;19.80;60.20
58519;DHT22;44310;48.106;12.008;2023-06-14T10:24:30;19.90;60.00
58519;DHT22;44310;48.106;12.008;2023-06-14T10:26:59;19.80;60.10
58519;DHT22;44310;48.106;12.008;2023-06-14T10:29:29;19.90;60.10
58519;DHT22;44310;48.106;12.008;2023-06-14T10:32:00;19.90;59.80
58519;DHT22;44310;48.106;12.008;2023-06-14T10:34:29;19.90;60.10
58519;DHT22;44310;48.106;12.008;2023-06-14T10:37:23;19.80;60.00
58519;DHT22;44310;48.106;12.008;2023-06-14T10:39:51;19.80;59.80
58519;DHT22;44310;48.106;12.008;2023-06-14T10:42:20;19.80;60.10
58519;DHT22;44310;48.106;12.008;2023-06-14T10:44:50;19.80;60.10
58519;DHT22;44310;48.106;12.008;2023-06-14T10:47:30;19.90;60.00
58519;DHT22;44310;48.106;12.008;2023-06-14T10:50:10;19.80;59.90
58519;DHT22;44310;48.106;12.008;2023-06-14T10:52:39;19.80;60.00
58519;DHT22;44310;48.106;12.008;2023-06-14T10:55:16;19.90;60.10
58519;DHT22;44310;48.106;12.008;2023-06-14T10:57:48;19.90;60.20
58519;DHT22;44310;48.106;12.008;2023-06-14T11:00:21;19.90;60.30
58519;DHT22;44310;48.106;12.008;2023-06-14T11:03:21;19.90;60.00
58519;DHT22;44310;48.106;12.008;2023-06-14T11:05:58;19.90;60.00
58519;DHT22;44310;48.106;12.008;2023-06-14T11:09:07;19.90;60.20
58519;DHT22;44310;48.106;12.008;2023-06-14T11:11:42;19.90;60.20
58519;DHT22;44310;48.106;12.008;2023-06-14T11:14:10;19.90;60.10
58519;DHT22;44310;48.106;12.008;2023-06-14T11:16:37;20.10;60.00
58519;DHT22;44310;48.106;12.008;2023-06-14T11:19:05;19.90;60.00
58519;DHT22;44310;48.106;12.008;2023-06-14T11:21:33;19.90;59.90
58519;DHT22;44310;48.106;12.008;2023-06-14T11:24:00;19.90;60.00
58519;DHT22;44310;48.106;12.008;2023-06-14T11:26:31;19.90;60.00
58519;DHT22;44310;48.106;12.008;2023-06-14T11:29:01;19.90;60.30
58519;DHT22;44310;48.106;12.008;2023-06-14T11:31:28;19.90;60.30
58519;DHT22;44310;48.106;12.008;2023-06-14T11:33:58;20.30;60.60
58519;DHT22;44310;48.106;12.008;2023-06-14T11:36:30;19.90;60.10
58519;DHT22;44310;48.106;12.008;2023-06-14T11:39:07;19.90;60.10
58519;DHT22;44310;48.106;12.008;2023-06-14T11:41:39;19.90;59.80
58519;DHT22;44310;48.106;12.008;2023-06-14T11:44:07;20.00;59.30
58519;DHT22;44310;48.106;12.008;2023-06-14T11:46:35;19.90;59.60
58519;DHT22;44310;48.106;12.008;2023-06-14T11:49:03;19.50;59.70
58519;DHT22;44310;48.106;12.008;2023-06-14T11:51:33;19.90;60.50
58519;DHT22;44310;48.106;12.008;2023-06-14T11:54:02;20.00;60.00
58519;DHT22;44310;48.106;12.008;2023-06-14T11:56:31;20.00;59.50
58519;DHT22;44310;48.106;12.008;2023-06-14T11:58:59;20.00;59.60
58519;DHT22;44310;48.106;12.008;2023-06-14T12:01:30;19.40;59.60
58519;DHT22;44310;48.106;12.008;2023-06-14T12:03:59;20.00;59.70
58519;DHT22;44310;48.106;12.008;2023-06-14T12:06:27;20.00;59.70
58519;DHT22;44310;48.106;12.008;2023-06-14T12:08:56;20.00;59.70
58519;DHT22;44310;48.106;12.008;2023-06-14T12:11:24;20.00;59.70
58519;DHT22;44310;48.106;12.008;2023-06-14T12:13:56;20.00;60.00
58519;DHT22;44310;48.106;12.008;2023-06-14T12:16:30;20.00;60.10
58519;DHT22;44310;48.106;12.008;2023-06-14T12:19:07;20.00;60.00
58519;DHT22;44310;48.106;12.008;2023-06-14T12:21:34;20.00;60.20
58519;DHT22;44310;48.106;12.008;2023-06-14T12:24:03;20.00;59.80
58519;DHT22;44310;48.106;12.008;2023-06-14T12:26:31;20.00;59.50
58519;DHT22;44310;48.106;12.008;2023-06-14T12:28:58;20.30;60.20
58519;DHT22;44310;48.106;12.008;2023-06-14T12:31:25;20.00;60.60
58519;DHT22;44310;48.106;12.008;2023-06-14T12:36:20;20.00;59.80
58519;DHT22;44310;48.106;12.008;2023-06-14T12:38:47;20.20;60.20
58519;DHT22;44310;48.106;12.008;2023-06-14T12:41:15;20.00;60.10
58519;DHT22;44310;48.106;12.008;2023-06-14T12:43:42;20.00;59.90
58519;DHT22;44310;48.106;12.008;2023-06-14T12:46:10;20.10;62.00
58519;DHT22;44310;48.106;12.008;2023-06-14T12:48:37;20.20;56.20
58519;DHT22;44310;48.106;12.008;2023-06-14T12:51:04;20.30;55.90
58519;DHT22;44310;48.106;12.008;2023-06-14T12:53:32;20.30;56.40
58519;DHT22;44310;48.106;12.008;2023-06-14T12:55:59;20.40;56.50
58519;DHT22;44310;48.106;12.008;2023-06-14T12:58:26;20.40;57.30
58519;DHT22;44310;48.106;12.008;2023-06-14T13:00:53;20.40;57.60
58519;DHT22;44310;48.106;12.008;2023-06-14T13:03:20;20.40;58.00
58519;DHT22;44310;48.106;12.008;2023-06-14T13:05:48;20.40;58.40
58519;DHT22;44310;48.106;12.008;2023-06-14T13:08:16;20.30;59.10
58519;DHT22;44310;48.106;12.008;2023-06-14T13:10:43;20.40;57.80
58519;DHT22;44310;48.106;12.008;2023-06-14T13:13:10;20.50;55.70
58519;DHT22;44310;48.106;12.008;2023-06-14T13:15:39;20.60;56.00
58519;DHT22;44310;48.106;12.008;2023-06-14T13:18:07;20.60;56.50
58519;DHT22;44310;48.106;12.008;2023-06-14T13:20:34;20.60;57.30
58519;DHT22;44310;48.106;12.008;2023-06-14T13:23:01;20.60;57.70
58519;DHT22;44310;48.106;12.008;2023-06-14T13:25:31;20.60;58.70
58519;DHT22;44310;48.106;12.008;2023-06-14T13:27:58;20.50;58.90
58519;DHT22;44310;48.106;12.008;2023-06-14T13:30:25;20.50;59.60
58519;DHT22;44310;48.106;12.008;2023-06-14T13:32:53;20.40;59.70
58519;DHT22;44310;48.106;12.008;2023-06-14T13:35:20;20.40;59.10
58519;DHT22;44310;48.106;12.008;2023-06-14T13:37:47;20.40;60.20
58519;DHT22;44310;48.106;12.008;2023-06-14T13:40:14;20.50;61.30
58519;DHT22;44310;48.106;12.008;2023-06-14T13:42:42;20.50;61.10
58519;DHT22;44310;48.106;12.008;2023-06-14T13:45:11;20.40;60.90
58519;DHT22;44310;48.106;12.008;2023-06-14T13:47:38;20.40;60.20
58519;DHT22;44310;48.106;12.008;2023-06-14T13:50:06;20.40;60.60
58519;DHT22;44310;48.106;12.008;2023-06-14T13:52:34;20.40;60.60
58519;DHT22;44310;48.106;12.008;2023-06-14T13:55:02;20.40;59.30
58519;DHT22;44310;48.106;12.008;2023-06-14T13:57:29;20.30;59.40
58519;DHT22;44310;48.106;12.008;2023-06-14T13:59:56;20.30;59.10
58519;DHT22;44310;48.106;12.008;2023-06-14T14:02:29;20.30;59.30
58519;DHT22;44310;48.106;12.008;2023-06-14T14:04:56;20.20;59.20
58519;DHT22;44310;48.106;12.008;2023-06-14T14:07:24;20.30;59.50
58519;DHT22;44310;48.106;12.008;2023-06-14T14:09:51;20.20;59.50
58519;DHT22;44310;48.106;12.008;2023-06-14T14:12:20;20.20;60.10
58519;DHT22;44310;48.106;12.008;2023-06-14T14:14:47;20.30;61.00
58519;DHT22;44310;48.106;12.008;2023-06-14T14:17:14;20.50;61.70
58519;DHT22;44310;48.106;12.008;2023-06-14T14:19:41;20.30;60.80
58519;DHT22;44310;48.106;12.008;2023-06-14T14:22:08;20.20;61.00
58519;DHT22;44310;48.106;12.008;2023-06-14T14:24:36;20.20;61.60
58519;DHT22;44310;48.106;12.008;2023-06-14T14:27:03;20.30;61.70
58519;DHT22;44310;48.106;12.008;2023-06-14T14:29:32;20.20;61.80
58519;DHT22;44310;48.106;12.008;2023-06-14T14:31:59;20.20;60.80
58519;DHT22;44310;48.106;12.008;2023-06-14T14:34:27;20.20;61.10
58519;DHT22;44310;48.106;12.008;2023-06-14T14:36:54;20.20;61.50
58519;DHT22;44310;48.106;12.008;2023-06-14T14:39:21;20.20;59.70
58519;DHT22;44310;48.106;12.008;2023-06-14T14:41:49;20.20;59.50
58519;DHT22;44310;48.106;12.008;2023-06-14T14:44:16;20.20;59.90
58519;DHT22;44310;48.106;12.008;2023-06-14T14:46:45;20.40;60.30
58519;DHT22;44310;48.106;12.008;2023-06-14T14:49:12;20.20;60.30
58519;DHT22;44310;48.106;12.008;2023-06-14T14:51:39;20.20;60.60
58519;DHT22;44310;48.106;12.008;2023-06-14T14:54:06;20.20;61.10
58519;DHT22;44310;48.106;12.008;2023-06-14T14:56:34;20.20;61.30
58519;DHT22;44310;48.106;12.008;2023-06-14T14:59:02;20.50;61.90
58519;DHT22;44310;48.106;12.008;2023-06-14T15:01:30;20.20;61.10
58519;DHT22;44310;48.106;12.008;2023-06-14T15:03:57;20.20;60.70
58519;DHT22;44310;48.106;12.008;2023-06-14T15:06:26;20.10;60.30
58519;DHT22;44310;48.106;12.008;2023-06-14T15:08:53;20.10;60.40
58519;DHT22;44310;48.106;12.008;2023-06-14T15:11:21;20.00;60.10
58519;DHT22;44310;48.106;12.008;2023-06-14T15:13:48;20.10;59.40
58519;DHT22;44310;48.106;12.008;2023-06-14T15:16:16;20.20;59.30
58519;DHT22;44310;48.106;12.008;2023-06-14T15:18:43;20.20;59.40
58519;DHT22;44310;48.106;12.008;2023-06-14T15:21:10;20.00;59.30
58519;DHT22;44310;48.106;12.008;2023-06-14T15:23:37;20.10;59.20
58519;DHT22;44310;48.106;12.008;2023-06-14T15:26:04;20.10;59.50
58519;DHT22;44310;48.106;12.008;2023-06-14T15:28:31;20.10;59.60
58519;DHT22;44310;48.106;12.008;2023-06-14T15:30:59;20.00;59.30
58519;DHT22;44310;48.106;12.008;2023-06-14T15:33:27;20.10;60.20
58519;DHT22;44310;48.106;12.008;2023-06-14T15:35:54;19.70;60.10